sensor_id;sensor_type;location;lat;lon;timestamp;P1;durP1;ratioP1;P2;durP2;ratioP2
44850;SDS011;30583;48.714;9.386;2023-04-16T00:01:48;9.13;;;7.43;;
44850;SDS011;30583;48.714;9.386;2023-04-16T00:04:13;9.48;;;7.63;;
44850;SDS011;30583;48.714;9.386;2023-04-16T00:06:39;8.57;;;6.72;;
44850;SDS011;30583;48.714;9.386;2023-04-16T00:09:05;8.60;;;7.18;;
44850;SDS011;30583;48.714;9.386;2023-04-16T00:11:30;10.45;;;7.28;;
44850;SDS011;30583;48.714;9.386;2023-04-16T00:13:56;9.07;;;7.50;;
44850;SDS011;30583;48.714;9.386;2023-04-16T00:16:21;9.48;;;7.65;;
44850;SDS011;30583;48.714;9.386;2023-04-16T00:18:47;9.73;;;7.55;;
44850;SDS011;30583;48.714;9.386;2023-04-16T00:21:13;9.50;;;7.53;;
44850;SDS011;30583;48.714;9.386;2023-04-16T00:23:38;9.07;;;7.53;;
44850;SDS011;30583;48.714;9.386;2023-04-16T00:26:04;10.50;;;7.68;;
44850;SDS011;30583;48.714;9.386;2023-04-16T00:28:29;9.40;;;7.40;;
44850;SDS011;30583;48.714;9.386;2023-04-16T00:30:55;9.98;;;8.18;;
44850;SDS011;30583;48.714;9.386;2023-04-16T00:33:21;10.05;;;7.82;;
44850;SDS011;30583;48.714;9.386;2023-04-16T00:35:47;13.55;;;10.75;;
44850;SDS011;30583;48.714;9.386;2023-04-16T00:38:13;22.02;;;16.27;;
44850;SDS011;30583;48.714;9.386;2023-04-16T00:40:38;10.98;;;8.73;;
44850;SDS011;30583;48.714;9.386;2023-04-16T00:43:04;9.70;;;7.75;;
44850;SDS011;30583;48.714;9.386;2023-04-16T00:45:30;10.20;;;7.90;;
44850;SDS011;30583;48.714;9.386;2023-04-16T00:47:56;9.25;;;7.75;;
44850;SDS011;30583;48.714;9.386;2023-04-16T00:50:22;9.38;;;8.00;;
44850;SDS011;30583;48.714;9.386;2023-04-16T00:52:48;8.55;;;7.00;;
44850;SDS011;30583;48.714;9.386;2023-04-16T00:55:15;9.43;;;7.60;;
44850;SDS011;30583;48.714;9.386;2023-04-16T00:57:42;10.75;;;8.48;;
44850;SDS011;30583;48.714;9.386;2023-04-16T01:00:11;9.68;;;7.47;;
44850;SDS011;30583;48.714;9.386;2023-04-16T01:02:37;11.30;;;8.45;;
44850;SDS011;30583;48.714;9.386;2023-04-16T01:05:03;10.15;;;7.43;;
44850;SDS011;30583;48.714;9.386;2023-04-16T01:07:29;9.82;;;7.85;;
44850;SDS011;30583;48.714;9.386;2023-04-16T01:09:55;9.18;;;7.53;;
44850;SDS011;30583;48.714;9.386;2023-04-16T01:12:20;9.27;;;7.40;;
44850;SDS011;30583;48.714;9.386;2023-04-16T01:14:46;10.18;;;7.95;;
44850;SDS011;30583;48.714;9.386;2023-04-16T01:17:12;10.38;;;8.32;;
44850;SDS011;30583;48.714;9.386;2023-04-16T01:19:37;9.25;;;7.53;;
44850;SDS011;30583;48.714;9.386;2023-04-16T01:22:03;9.93;;;7.18;;
44850;SDS011;30583;48.714;9.386;2023-04-16T01:24:29;9.65;;;7.78;;
44850;SDS011;30583;48.714;9.386;2023-04-16T01:26:58;10.90;;;8.30;;
44850;SDS011;30583;48.714;9.386;2023-04-16T01:29:24;11.02;;;8.07;;
44850;SDS011;30583;48.714;9.386;2023-04-16T01:31:50;10.15;;;8.10;;
44850;SDS011;30583;48.714;9.386;2023-04-16T01:34:16;9.65;;;7.68;;
44850;SDS011;30583;48.714;9.386;2023-04-16T01:36:41;9.73;;;7.63;;
44850;SDS011;30583;48.714;9.386;2023-04-16T01:39:07;8.98;;;7.28;;
44850;SDS011;30583;48.714;9.386;2023-04-16T01:41:35;9.35;;;7.43;;
44850;SDS011;30583;48.714;9.386;2023-04-16T01:44:01;9.45;;;7.40;;
44850;SDS011;30583;48.714;9.386;2023-04-16T01:46:27;11.07;;;8.00;;
44850;SDS011;30583;48.714;9.386;2023-04-16T01:48:55;10.60;;;7.70;;
44850;SDS011;30583;48.714;9.386;2023-04-16T01:51:21;8.77;;;7.32;;
44850;SDS011;30583;48.714;9.386;2023-04-16T01:53:47;10.25;;;7.45;;
44850;SDS011;30583;48.714;9.386;2023-04-16T01:56:14;9.40;;;7.70;;
44850;SDS011;30583;48.714;9.386;2023-04-16T01:58:39;9.48;;;7.30;;
44850;SDS011;30583;48.714;9.386;2023-04-16T02:01:06;10.18;;;7.68;;
44850;SDS011;30583;48.714;9.386;2023-04-16T02:03:32;8.10;;;6.60;;
44850;SDS011;30583;48.714;9.386;2023-04-16T02:05:58;9.02;;;7.57;;
44850;SDS011;30583;48.714;9.386;2023-04-16T02:08:25;10.02;;;7.88;;
44850;SDS011;30583;48.714;9.386;2023-04-16T02:10:50;9.50;;;6.85;;
44850;SDS011;30583;48.714;9.386;2023-04-16T02:13:16;10.10;;;7.03;;
44850;SDS011;30583;48.714;9.386;2023-04-16T02:15:45;8.98;;;7.45;;
44850;SDS011;30583;48.714;9.386;2023-04-16T02:18:12;8.77;;;7.13;;
44850;SDS011;30583;48.714;9.386;2023-04-16T02:20:41;8.55;;;6.88;;
44850;SDS011;30583;48.714;9.386;2023-04-16T02:23:08;8.80;;;6.68;;
44850;SDS011;30583;48.714;9.386;2023-04-16T02:25:40;8.15;;;5.85;;
44850;SDS011;30583;48.714;9.386;2023-04-16T02:28:07;8.45;;;7.25;;
44850;SDS011;30583;48.714;9.386;2023-04-16T02:30:37;8.52;;;6.70;;
44850;SDS011;30583;48.714;9.386;2023-04-16T02:33:04;9.02;;;6.65;;
44850;SDS011;30583;48.714;9.386;2023-04-16T02:35:31;8.52;;;6.45;;
44850;SDS011;30583;48.714;9.386;2023-04-16T02:37:57;18.70;;;15.00;;
44850;SDS011;30583;48.714;9.386;2023-04-16T02:40:24;24.00;;;18.77;;
44850;SDS011;30583;48.714;9.386;2023-04-16T02:42:50;10.73;;;7.88;;
44850;SDS011;30583;48.714;9.386;2023-04-16T02:45:15;9.00;;;6.60;;
44850;SDS011;30583;48.714;9.386;2023-04-16T02:47:41;7.90;;;6.40;;
44850;SDS011;30583;48.714;9.386;2023-04-16T02:50:06;7.80;;;5.85;;
44850;SDS011;30583;48.714;9.386;2023-04-16T02:52:32;9.32;;;6.93;;
44850;SDS011;30583;48.714;9.386;2023-04-16T02:54:58;8.07;;;6.30;;
44850;SDS011;30583;48.714;9.386;2023-04-16T02:57:24;8.80;;;6.80;;
44850;SDS011;30583;48.714;9.386;2023-04-16T02:59:50;8.75;;;6.32;;
44850;SDS011;30583;48.714;9.386;2023-04-16T03:02:15;7.72;;;6.15;;
44850;SDS011;30583;48.714;9.386;2023-04-16T03:04:41;10.43;;;6.45;;
44850;SDS011;30583;48.714;9.386;2023-04-16T03:07:07;7.45;;;5.43;;
44850;SDS011;30583;48.714;9.386;2023-04-16T03:09:33;9.50;;;6.40;;
44850;SDS011;30583;48.714;9.386;2023-04-16T03:11:59;7.45;;;5.95;;
44850;SDS011;30583;48.714;9.386;2023-04-16T03:14:28;7.68;;;6.72;;
44850;SDS011;30583;48.714;9.386;2023-04-16T03:16:54;9.43;;;6.82;;
44850;SDS011;30583;48.714;9.386;2023-04-16T03:19:19;8.15;;;6.05;;
44850;SDS011;30583;48.714;9.386;2023-04-16T03:21:45;15.57;;;10.98;;
44850;SDS011;30583;48.714;9.386;2023-04-16T03:24:11;12.07;;;9.20;;
44850;SDS011;30583;48.714;9.386;2023-04-16T03:26:37;16.67;;;12.43;;
44850;SDS011;30583;48.714;9.386;2023-04-16T03:29:03;9.60;;;7.40;;
44850;SDS011;30583;48.714;9.386;2023-04-16T03:31:28;8.32;;;7.18;;
44850;SDS011;30583;48.714;9.386;2023-04-16T03:33:54;8.23;;;6.20;;
44850;SDS011;30583;48.714;9.386;2023-04-16T03:36:20;9.30;;;7.00;;
44850;SDS011;30583;48.714;9.386;2023-04-16T03:38:47;8.73;;;6.82;;
44850;SDS011;30583;48.714;9.386;2023-04-16T03:41:13;9.13;;;6.43;;
44850;SDS011;30583;48.714;9.386;2023-04-16T03:43:38;8.82;;;6.65;;
44850;SDS011;30583;48.714;9.386;2023-04-16T03:46:04;8.30;;;6.40;;
44850;SDS011;30583;48.714;9.386;2023-04-16T03:48:29;12.90;;;9.52;;
44850;SDS011;30583;48.714;9.386;2023-04-16T03:50:55;12.95;;;9.98;;
44850;SDS011;30583;48.714;9.386;2023-04-16T03:53:21;10.50;;;8.07;;
44850;SDS011;30583;48.714;9.386;2023-04-16T03:55:48;9.80;;;7.15;;
44850;SDS011;30583;48.714;9.386;2023-04-16T03:58:18;10.95;;;7.93;;
44850;SDS011;30583;48.714;9.386;2023-04-16T04:00:44;10.82;;;7.15;;
44850;SDS011;30583;48.714;9.386;2023-04-16T04:03:10;10.07;;;7.00;;
44850;SDS011;30583;48.714;9.386;2023-04-16T04:05:36;9.15;;;7.05;;
44850;SDS011;30583;48.714;9.386;2023-04-16T04:08:03;9.23;;;7.35;;
44850;SDS011;30583;48.714;9.386;2023-04-16T04:10:30;8.48;;;6.53;;
44850;SDS011;30583;48.714;9.386;2023-04-16T04:12:57;8.05;;;6.40;;
44850;SDS011;30583;48.714;9.386;2023-04-16T04:15:22;9.48;;;7.10;;
44850;SDS011;30583;48.714;9.386;2023-04-16T04:17:48;8.18;;;6.40;;
44850;SDS011;30583;48.714;9.386;2023-04-16T04:20:13;7.70;;;6.35;;
44850;SDS011;30583;48.714;9.386;2023-04-16T04:22:39;8.18;;;6.18;;
44850;SDS011;30583;48.714;9.386;2023-04-16T04:25:05;9.68;;;7.28;;
44850;SDS011;30583;48.714;9.386;2023-04-16T04:27:30;9.45;;;6.78;;
44850;SDS011;30583;48.714;9.386;2023-04-16T04:29:56;16.08;;;11.15;;
44850;SDS011;30583;48.714;9.386;2023-04-16T04:32:22;12.23;;;7.53;;
44850;SDS011;30583;48.714;9.386;2023-04-16T04:34:47;9.88;;;7.07;;
44850;SDS011;30583;48.714;9.386;2023-04-16T04:37:13;8.75;;;6.70;;
44850;SDS011;30583;48.714;9.386;2023-04-16T04:39:38;11.48;;;8.15;;
44850;SDS011;30583;48.714;9.386;2023-04-16T04:42:04;10.30;;;7.80;;
44850;SDS011;30583;48.714;9.386;2023-04-16T04:44:29;10.23;;;7.82;;
44850;SDS011;30583;48.714;9.386;2023-04-16T04:46:55;11.63;;;8.10;;
44850;SDS011;30583;48.714;9.386;2023-04-16T04:49:21;37.80;;;26.17;;
44850;SDS011;30583;48.714;9.386;2023-04-16T04:51:46;19.77;;;13.40;;
44850;SDS011;30583;48.714;9.386;2023-04-16T04:54:12;17.67;;;11.85;;
44850;SDS011;30583;48.714;9.386;2023-04-16T04:56:38;17.48;;;11.00;;
44850;SDS011;30583;48.714;9.386;2023-04-16T04:59:03;11.20;;;8.27;;
44850;SDS011;30583;48.714;9.386;2023-04-16T05:01:29;8.82;;;6.75;;
44850;SDS011;30583;48.714;9.386;2023-04-16T05:03:55;9.25;;;6.93;;
44850;SDS011;30583;48.714;9.386;2023-04-16T05:06:20;11.30;;;7.18;;
44850;SDS011;30583;48.714;9.386;2023-04-16T05:08:46;9.88;;;7.65;;
44850;SDS011;30583;48.714;9.386;2023-04-16T05:11:11;9.15;;;6.90;;
44850;SDS011;30583;48.714;9.386;2023-04-16T05:13:37;10.80;;;7.65;;
44850;SDS011;30583;48.714;9.386;2023-04-16T05:16:03;9.80;;;7.40;;
44850;SDS011;30583;48.714;9.386;2023-04-16T05:18:28;12.45;;;8.45;;
44850;SDS011;30583;48.714;9.386;2023-04-16T05:20:55;12.05;;;7.88;;
44850;SDS011;30583;48.714;9.386;2023-04-16T05:23:20;11.18;;;7.97;;
44850;SDS011;30583;48.714;9.386;2023-04-16T05:25:46;12.07;;;8.32;;
44850;SDS011;30583;48.714;9.386;2023-04-16T05:28:11;11.23;;;8.10;;
44850;SDS011;30583;48.714;9.386;2023-04-16T05:30:37;10.80;;;7.97;;
44850;SDS011;30583;48.714;9.386;2023-04-16T05:33:02;12.88;;;8.75;;
44850;SDS011;30583;48.714;9.386;2023-04-16T05:35:28;12.88;;;9.10;;
44850;SDS011;30583;48.714;9.386;2023-04-16T05:37:53;12.80;;;9.18;;
44850;SDS011;30583;48.714;9.386;2023-04-16T05:40:19;13.43;;;8.70;;
44850;SDS011;30583;48.714;9.386;2023-04-16T05:42:45;13.32;;;9.40;;
44850;SDS011;30583;48.714;9.386;2023-04-16T05:45:10;10.80;;;7.60;;
44850;SDS011;30583;48.714;9.386;2023-04-16T05:47:36;11.98;;;7.95;;
44850;SDS011;30583;48.714;9.386;2023-04-16T05:50:01;12.55;;;8.38;;
44850;SDS011;30583;48.714;9.386;2023-04-16T05:52:27;10.77;;;8.15;;
44850;SDS011;30583;48.714;9.386;2023-04-16T05:54:52;16.92;;;11.05;;
44850;SDS011;30583;48.714;9.386;2023-04-16T05:57:18;13.75;;;9.13;;
44850;SDS011;30583;48.714;9.386;2023-04-16T05:59:43;18.13;;;12.48;;
44850;SDS011;30583;48.714;9.386;2023-04-16T06:02:09;12.75;;;8.35;;
44850;SDS011;30583;48.714;9.386;2023-04-16T06:04:35;14.70;;;10.30;;
44850;SDS011;30583;48.714;9.386;2023-04-16T06:07:01;13.13;;;9.23;;
44850;SDS011;30583;48.714;9.386;2023-04-16T06:09:26;12.48;;;8.60;;
44850;SDS011;30583;48.714;9.386;2023-04-16T06:11:53;14.25;;;9.18;;
44850;SDS011;30583;48.714;9.386;2023-04-16T06:14:19;12.57;;;9.02;;
44850;SDS011;30583;48.714;9.386;2023-04-16T06:16:44;13.85;;;9.45;;
44850;SDS011;30583;48.714;9.386;2023-04-16T06:19:10;14.45;;;9.55;;
44850;SDS011;30583;48.714;9.386;2023-04-16T06:21:36;16.63;;;10.13;;
44850;SDS011;30583;48.714;9.386;2023-04-16T06:24:02;14.52;;;10.57;;
44850;SDS011;30583;48.714;9.386;2023-04-16T06:26:27;16.25;;;10.15;;
44850;SDS011;30583;48.714;9.386;2023-04-16T06:28:53;15.38;;;10.18;;
44850;SDS011;30583;48.714;9.386;2023-04-16T06:31:18;16.40;;;10.70;;
44850;SDS011;30583;48.714;9.386;2023-04-16T06:33:44;15.75;;;10.65;;
44850;SDS011;30583;48.714;9.386;2023-04-16T06:36:10;18.63;;;11.85;;
44850;SDS011;30583;48.714;9.386;2023-04-16T06:38:36;16.95;;;11.80;;
44850;SDS011;30583;48.714;9.386;2023-04-16T06:41:01;17.17;;;11.70;;
44850;SDS011;30583;48.714;9.386;2023-04-16T06:43:27;19.63;;;13.20;;
44850;SDS011;30583;48.714;9.386;2023-04-16T06:45:54;23.85;;;15.57;;
44850;SDS011;30583;48.714;9.386;2023-04-16T06:48:19;21.15;;;14.13;;
44850;SDS011;30583;48.714;9.386;2023-04-16T06:50:45;21.90;;;15.25;;
44850;SDS011;30583;48.714;9.386;2023-04-16T06:53:10;23.42;;;15.85;;
44850;SDS011;30583;48.714;9.386;2023-04-16T06:55:36;27.02;;;16.50;;
44850;SDS011;30583;48.714;9.386;2023-04-16T06:58:01;22.08;;;14.70;;
44850;SDS011;30583;48.714;9.386;2023-04-16T07:00:27;20.92;;;15.35;;
44850;SDS011;30583;48.714;9.386;2023-04-16T07:02:53;24.33;;;15.57;;
44850;SDS011;30583;48.714;9.386;2023-04-16T07:05:18;24.17;;;14.60;;
44850;SDS011;30583;48.714;9.386;2023-04-16T07:07:44;23.25;;;15.40;;
44850;SDS011;30583;48.714;9.386;2023-04-16T07:10:09;21.48;;;14.20;;
44850;SDS011;30583;48.714;9.386;2023-04-16T07:12:35;22.98;;;16.02;;
44850;SDS011;30583;48.714;9.386;2023-04-16T07:15:01;24.63;;;16.48;;
44850;SDS011;30583;48.714;9.386;2023-04-16T07:17:27;24.13;;;17.42;;
44850;SDS011;30583;48.714;9.386;2023-04-16T07:19:52;24.15;;;15.82;;
44850;SDS011;30583;48.714;9.386;2023-04-16T07:22:18;24.88;;;16.60;;
44850;SDS011;30583;48.714;9.386;2023-04-16T07:24:44;24.33;;;16.80;;
44850;SDS011;30583;48.714;9.386;2023-04-16T07:27:09;32.92;;;21.40;;
44850;SDS011;30583;48.714;9.386;2023-04-16T07:29:35;28.23;;;19.52;;
44850;SDS011;30583;48.714;9.386;2023-04-16T07:32:01;28.75;;;18.13;;
44850;SDS011;30583;48.714;9.386;2023-04-16T07:34:26;29.40;;;19.92;;
44850;SDS011;30583;48.714;9.386;2023-04-16T07:36:52;29.52;;;21.08;;
44850;SDS011;30583;48.714;9.386;2023-04-16T07:39:17;30.35;;;21.25;;
44850;SDS011;30583;48.714;9.386;2023-04-16T07:41:43;26.45;;;16.98;;
44850;SDS011;30583;48.714;9.386;2023-04-16T07:44:08;25.55;;;16.83;;
44850;SDS011;30583;48.714;9.386;2023-04-16T07:46:34;24.40;;;16.88;;
44850;SDS011;30583;48.714;9.386;2023-04-16T07:49:00;25.13;;;17.33;;
44850;SDS011;30583;48.714;9.386;2023-04-16T07:51:25;25.50;;;17.42;;
44850;SDS011;30583;48.714;9.386;2023-04-16T07:53:51;23.10;;;16.30;;
44850;SDS011;30583;48.714;9.386;2023-04-16T07:56:17;22.30;;;16.00;;
44850;SDS011;30583;48.714;9.386;2023-04-16T07:58:42;25.40;;;16.67;;
44850;SDS011;30583;48.714;9.386;2023-04-16T08:01:08;23.77;;;16.40;;
44850;SDS011;30583;48.714;9.386;2023-04-16T08:03:33;26.40;;;16.40;;
44850;SDS011;30583;48.714;9.386;2023-04-16T08:05:59;24.83;;;16.08;;
44850;SDS011;30583;48.714;9.386;2023-04-16T08:08:24;24.13;;;15.40;;
44850;SDS011;30583;48.714;9.386;2023-04-16T08:10:50;24.05;;;16.10;;
44850;SDS011;30583;48.714;9.386;2023-04-16T08:13:19;24.20;;;16.67;;
44850;SDS011;30583;48.714;9.386;2023-04-16T08:15:48;25.23;;;16.17;;
44850;SDS011;30583;48.714;9.386;2023-04-16T08:18:14;21.60;;;15.20;;
44850;SDS011;30583;48.714;9.386;2023-04-16T08:20:40;21.58;;;15.57;;
44850;SDS011;30583;48.714;9.386;2023-04-16T08:23:06;28.13;;;17.63;;
44850;SDS011;30583;48.714;9.386;2023-04-16T08:25:32;25.33;;;16.70;;
44850;SDS011;30583;48.714;9.386;2023-04-16T08:27:57;22.83;;;15.30;;
44850;SDS011;30583;48.714;9.386;2023-04-16T08:30:23;17.45;;;11.63;;
44850;SDS011;30583;48.714;9.386;2023-04-16T08:32:49;16.73;;;10.77;;
44850;SDS011;30583;48.714;9.386;2023-04-16T08:35:15;24.25;;;16.23;;
44850;SDS011;30583;48.714;9.386;2023-04-16T08:37:40;23.70;;;15.88;;
44850;SDS011;30583;48.714;9.386;2023-04-16T08:40:06;19.73;;;14.23;;
44850;SDS011;30583;48.714;9.386;2023-04-16T08:42:54;20.48;;;14.05;;
44850;SDS011;30583;48.714;9.386;2023-04-16T08:45:22;22.15;;;15.30;;
44850;SDS011;30583;48.714;9.386;2023-04-16T08:47:50;19.92;;;14.95;;
44850;SDS011;30583;48.714;9.386;2023-04-16T08:50:19;22.48;;;14.68;;
44850;SDS011;30583;48.714;9.386;2023-04-16T08:52:51;26.15;;;17.83;;
44850;SDS011;30583;48.714;9.386;2023-04-16T08:55:21;23.50;;;15.80;;
44850;SDS011;30583;48.714;9.386;2023-04-16T08:57:56;20.73;;;13.73;;
44850;SDS011;30583;48.714;9.386;2023-04-16T09:00:23;19.63;;;13.88;;
44850;SDS011;30583;48.714;9.386;2023-04-16T09:02:49;18.95;;;12.10;;
44850;SDS011;30583;48.714;9.386;2023-04-16T09:05:15;19.63;;;13.27;;
44850;SDS011;30583;48.714;9.386;2023-04-16T09:07:43;18.73;;;13.65;;
44850;SDS011;30583;48.714;9.386;2023-04-16T09:10:10;20.05;;;13.65;;
44850;SDS011;30583;48.714;9.386;2023-04-16T09:12:36;18.20;;;13.60;;
44850;SDS011;30583;48.714;9.386;2023-04-16T09:15:03;18.85;;;13.38;;
44850;SDS011;30583;48.714;9.386;2023-04-16T09:17:30;21.58;;;14.82;;
44850;SDS011;30583;48.714;9.386;2023-04-16T09:19:56;40.25;;;30.13;;
44850;SDS011;30583;48.714;9.386;2023-04-16T09:22:21;22.60;;;15.48;;
44850;SDS011;30583;48.714;9.386;2023-04-16T09:24:47;7.57;;;5.57;;
44850;SDS011;30583;48.714;9.386;2023-04-16T09:27:12;16.42;;;8.93;;
44850;SDS011;30583;48.714;9.386;2023-04-16T09:29:38;14.07;;;10.32;;
44850;SDS011;30583;48.714;9.386;2023-04-16T09:32:09;17.10;;;11.93;;
44850;SDS011;30583;48.714;9.386;2023-04-16T09:37:22;15.50;;;12.10;;
44850;SDS011;30583;48.714;9.386;2023-04-16T09:42:28;22.23;;;14.30;;
44850;SDS011;30583;48.714;9.386;2023-04-16T09:44:56;25.30;;;17.42;;
44850;SDS011;30583;48.714;9.386;2023-04-16T09:47:22;16.45;;;12.45;;
44850;SDS011;30583;48.714;9.386;2023-04-16T09:49:49;15.98;;;11.00;;
44850;SDS011;30583;48.714;9.386;2023-04-16T09:52:16;16.95;;;12.10;;
44850;SDS011;30583;48.714;9.386;2023-04-16T09:57:22;16.38;;;11.63;;
44850;SDS011;30583;48.714;9.386;2023-04-16T09:59:51;16.92;;;11.73;;
44850;SDS011;30583;48.714;9.386;2023-04-16T10:02:22;20.38;;;12.15;;
44850;SDS011;30583;48.714;9.386;2023-04-16T10:04:51;18.50;;;12.07;;
44850;SDS011;30583;48.714;9.386;2023-04-16T10:07:18;18.33;;;12.45;;
44850;SDS011;30583;48.714;9.386;2023-04-16T10:09:44;17.55;;;13.30;;
44850;SDS011;30583;48.714;9.386;2023-04-16T10:12:12;18.02;;;12.88;;
44850;SDS011;30583;48.714;9.386;2023-04-16T10:14:38;19.30;;;12.15;;
44850;SDS011;30583;48.714;9.386;2023-04-16T10:17:05;23.20;;;14.90;;
44850;SDS011;30583;48.714;9.386;2023-04-16T10:19:31;19.55;;;13.18;;
44850;SDS011;30583;48.714;9.386;2023-04-16T10:21:58;18.27;;;11.98;;
44850;SDS011;30583;48.714;9.386;2023-04-16T10:24:30;19.92;;;13.40;;
44850;SDS011;30583;48.714;9.386;2023-04-16T10:26:57;20.80;;;12.85;;
44850;SDS011;30583;48.714;9.386;2023-04-16T10:29:23;19.63;;;12.50;;
44850;SDS011;30583;48.714;9.386;2023-04-16T10:31:50;19.13;;;12.88;;
44850;SDS011;30583;48.714;9.386;2023-04-16T10:34:18;21.08;;;13.35;;
44850;SDS011;30583;48.714;9.386;2023-04-16T10:36:48;24.80;;;14.65;;
44850;SDS011;30583;48.714;9.386;2023-04-16T10:39:26;28.93;;;17.83;;
44850;SDS011;30583;48.714;9.386;2023-04-16T10:42:06;35.00;;;21.85;;
44850;SDS011;30583;48.714;9.386;2023-04-16T10:44:36;26.42;;;17.35;;
44850;SDS011;30583;48.714;9.386;2023-04-16T10:47:02;27.65;;;18.60;;
44850;SDS011;30583;48.714;9.386;2023-04-16T10:49:35;19.83;;;13.18;;
44850;SDS011;30583;48.714;9.386;2023-04-16T10:52:06;16.77;;;11.68;;
44850;SDS011;30583;48.714;9.386;2023-04-16T10:54:35;19.02;;;11.65;;
44850;SDS011;30583;48.714;9.386;2023-04-16T10:57:04;18.73;;;12.23;;
44850;SDS011;30583;48.714;9.386;2023-04-16T10:59:33;20.52;;;12.77;;
44850;SDS011;30583;48.714;9.386;2023-04-16T11:02:00;17.67;;;11.30;;
44850;SDS011;30583;48.714;9.386;2023-04-16T11:04:34;18.45;;;11.93;;
44850;SDS011;30583;48.714;9.386;2023-04-16T11:07:13;19.48;;;12.05;;
44850;SDS011;30583;48.714;9.386;2023-04-16T11:09:44;18.13;;;11.85;;
44850;SDS011;30583;48.714;9.386;2023-04-16T11:12:39;15.23;;;10.25;;
44850;SDS011;30583;48.714;9.386;2023-04-16T11:15:06;17.25;;;11.63;;
44850;SDS011;30583;48.714;9.386;2023-04-16T11:17:41;17.73;;;11.45;;
44850;SDS011;30583;48.714;9.386;2023-04-16T11:20:18;18.85;;;12.18;;
44850;SDS011;30583;48.714;9.386;2023-04-16T11:22:45;22.05;;;12.20;;
44850;SDS011;30583;48.714;9.386;2023-04-16T11:25:11;16.85;;;11.20;;
44850;SDS011;30583;48.714;9.386;2023-04-16T11:27:37;14.93;;;9.88;;
44850;SDS011;30583;48.714;9.386;2023-04-16T11:30:03;13.02;;;9.02;;
44850;SDS011;30583;48.714;9.386;2023-04-16T11:32:33;16.45;;;10.23;;
44850;SDS011;30583;48.714;9.386;2023-04-16T11:35:00;16.33;;;9.80;;
44850;SDS011;30583;48.714;9.386;2023-04-16T11:37:31;14.65;;;9.27;;
44850;SDS011;30583;48.714;9.386;2023-04-16T11:39:58;15.75;;;9.82;;
44850;SDS011;30583;48.714;9.386;2023-04-16T11:42:25;13.70;;;8.95;;
44850;SDS011;30583;48.714;9.386;2023-04-16T11:44:56;14.95;;;9.55;;
44850;SDS011;30583;48.714;9.386;2023-04-16T11:47:24;16.25;;;9.63;;
44850;SDS011;30583;48.714;9.386;2023-04-16T11:49:50;13.07;;;7.88;;
44850;SDS011;30583;48.714;9.386;2023-04-16T11:52:26;11.70;;;7.95;;
44850;SDS011;30583;48.714;9.386;2023-04-16T11:54:53;11.05;;;7.22;;
44850;SDS011;30583;48.714;9.386;2023-04-16T11:57:22;9.80;;;6.57;;
44850;SDS011;30583;48.714;9.386;2023-04-16T11:59:52;12.88;;;7.75;;
44850;SDS011;30583;48.714;9.386;2023-04-16T12:02:32;10.85;;;6.78;;
44850;SDS011;30583;48.714;9.386;2023-04-16T12:10:31;25.50;;;18.35;;
44850;SDS011;30583;48.714;9.386;2023-04-16T12:13:11;20.30;;;14.07;;
44850;SDS011;30583;48.714;9.386;2023-04-16T12:18:14;10.30;;;6.20;;
44850;SDS011;30583;48.714;9.386;2023-04-16T12:20:44;8.30;;;5.50;;
44850;SDS011;30583;48.714;9.386;2023-04-16T12:23:24;8.10;;;5.05;;
44850;SDS011;30583;48.714;9.386;2023-04-16T12:25:54;8.13;;;5.53;;
44850;SDS011;30583;48.714;9.386;2023-04-16T12:28:33;8.23;;;5.60;;
44850;SDS011;30583;48.714;9.386;2023-04-16T12:31:01;11.82;;;6.78;;
44850;SDS011;30583;48.714;9.386;2023-04-16T12:33:27;11.63;;;6.95;;
44850;SDS011;30583;48.714;9.386;2023-04-16T12:35:53;6.30;;;4.53;;
44850;SDS011;30583;48.714;9.386;2023-04-16T12:38:18;7.45;;;5.18;;
44850;SDS011;30583;48.714;9.386;2023-04-16T12:40:44;14.45;;;8.43;;
44850;SDS011;30583;48.714;9.386;2023-04-16T12:43:10;15.77;;;10.60;;
44850;SDS011;30583;48.714;9.386;2023-04-16T12:45:38;19.08;;;9.45;;
44850;SDS011;30583;48.714;9.386;2023-04-16T12:48:04;13.68;;;8.48;;
44850;SDS011;30583;48.714;9.386;2023-04-16T12:50:29;11.38;;;6.55;;
44850;SDS011;30583;48.714;9.386;2023-04-16T12:52:55;17.35;;;9.73;;
44850;SDS011;30583;48.714;9.386;2023-04-16T12:55:21;17.63;;;8.25;;
44850;SDS011;30583;48.714;9.386;2023-04-16T12:57:47;11.35;;;6.72;;
44850;SDS011;30583;48.714;9.386;2023-04-16T13:00:14;12.60;;;8.20;;
44850;SDS011;30583;48.714;9.386;2023-04-16T13:02:40;26.67;;;12.88;;
44850;SDS011;30583;48.714;9.386;2023-04-16T13:05:06;11.60;;;5.70;;
44850;SDS011;30583;48.714;9.386;2023-04-16T13:07:32;21.13;;;11.18;;
44850;SDS011;30583;48.714;9.386;2023-04-16T13:09:58;15.57;;;7.90;;
44850;SDS011;30583;48.714;9.386;2023-04-16T13:12:24;12.52;;;6.70;;
44850;SDS011;30583;48.714;9.386;2023-04-16T13:14:51;6.15;;;4.03;;
44850;SDS011;30583;48.714;9.386;2023-04-16T13:17:17;19.25;;;10.40;;
44850;SDS011;30583;48.714;9.386;2023-04-16T13:19:43;9.50;;;5.80;;
44850;SDS011;30583;48.714;9.386;2023-04-16T13:22:09;10.32;;;6.45;;
44850;SDS011;30583;48.714;9.386;2023-04-16T13:24:35;15.15;;;9.73;;
44850;SDS011;30583;48.714;9.386;2023-04-16T13:27:01;8.43;;;5.68;;
44850;SDS011;30583;48.714;9.386;2023-04-16T13:29:26;10.40;;;6.40;;
44850;SDS011;30583;48.714;9.386;2023-04-16T13:31:52;12.20;;;5.95;;
44850;SDS011;30583;48.714;9.386;2023-04-16T13:34:25;6.45;;;4.65;;
44850;SDS011;30583;48.714;9.386;2023-04-16T13:36:50;7.10;;;4.40;;
44850;SDS011;30583;48.714;9.386;2023-04-16T13:39:16;8.90;;;5.25;;
44850;SDS011;30583;48.714;9.386;2023-04-16T13:41:42;17.10;;;10.80;;
44850;SDS011;30583;48.714;9.386;2023-04-16T13:44:07;6.97;;;4.82;;
44850;SDS011;30583;48.714;9.386;2023-04-16T13:46:33;9.32;;;5.60;;
44850;SDS011;30583;48.714;9.386;2023-04-16T13:48:58;9.82;;;5.68;;
44850;SDS011;30583;48.714;9.386;2023-04-16T13:51:24;37.13;;;25.45;;
44850;SDS011;30583;48.714;9.386;2023-04-16T13:53:52;16.52;;;11.25;;
44850;SDS011;30583;48.714;9.386;2023-04-16T13:56:18;9.20;;;6.22;;
44850;SDS011;30583;48.714;9.386;2023-04-16T13:58:44;8.40;;;5.32;;
44850;SDS011;30583;48.714;9.386;2023-04-16T14:01:10;7.63;;;5.70;;
44850;SDS011;30583;48.714;9.386;2023-04-16T14:03:35;8.15;;;4.95;;
44850;SDS011;30583;48.714;9.386;2023-04-16T14:06:02;8.02;;;4.75;;
44850;SDS011;30583;48.714;9.386;2023-04-16T14:08:28;7.43;;;5.18;;
44850;SDS011;30583;48.714;9.386;2023-04-16T14:10:55;6.93;;;5.00;;
44850;SDS011;30583;48.714;9.386;2023-04-16T14:13:21;9.93;;;6.35;;
44850;SDS011;30583;48.714;9.386;2023-04-16T14:15:47;16.08;;;10.90;;
44850;SDS011;30583;48.714;9.386;2023-04-16T14:18:13;12.18;;;6.80;;
44850;SDS011;30583;48.714;9.386;2023-04-16T14:20:38;8.32;;;5.55;;
44850;SDS011;30583;48.714;9.386;2023-04-16T14:23:04;8.32;;;5.90;;
44850;SDS011;30583;48.714;9.386;2023-04-16T14:25:30;8.27;;;5.45;;
44850;SDS011;30583;48.714;9.386;2023-04-16T14:27:57;9.05;;;6.38;;
44850;SDS011;30583;48.714;9.386;2023-04-16T14:30:24;16.00;;;11.13;;
44850;SDS011;30583;48.714;9.386;2023-04-16T14:32:49;14.75;;;9.85;;
44850;SDS011;30583;48.714;9.386;2023-04-16T14:35:15;36.03;;;26.40;;
44850;SDS011;30583;48.714;9.386;2023-04-16T14:37:40;9.63;;;7.03;;
44850;SDS011;30583;48.714;9.386;2023-04-16T14:40:06;11.15;;;7.32;;
44850;SDS011;30583;48.714;9.386;2023-04-16T14:42:33;8.63;;;6.45;;
44850;SDS011;30583;48.714;9.386;2023-04-16T14:45:00;9.90;;;6.63;;
44850;SDS011;30583;48.714;9.386;2023-04-16T14:47:26;10.23;;;7.00;;